sensor_id;sensor_type;location;lat;lon;timestamp;temperature;humidity
21246;DHT22;10781;50.928;4.440;2023-02-28T00:00:21;2.80;99.90
21246;DHT22;10781;50.928;4.440;2023-02-28T00:02:47;2.70;99.90
21246;DHT22;10781;50.928;4.440;2023-02-28T00:05:15;2.70;99.90
21246;DHT22;10781;50.928;4.440;2023-02-28T00:07:41;2.70;99.90
21246;DHT22;10781;50.928;4.440;2023-02-28T00:10:10;2.70;99.90
21246;DHT22;10781;50.928;4.440;2023-02-28T00:12:37;2.80;99.90
21246;DHT22;10781;50.928;4.440;2023-02-28T00:15:06;2.70;99.90
21246;DHT22;10781;50.928;4.440;2023-02-28T00:17:32;2.60;99.90
21246;DHT22;10781;50.928;4.440;2023-02-28T00:19:58;2.60;99.90
21246;DHT22;10781;50.928;4.440;2023-02-28T00:22:41;2.80;99.90
21246;DHT22;10781;50.928;4.440;2023-02-28T00:25:08;3.00;99.90
21246;DHT22;10781;50.928;4.440;2023-02-28T00:27:35;3.30;99.90
21246;DHT22;10781;50.928;4.440;2023-02-28T00:30:01;3.20;99.90
21246;DHT22;10781;50.928;4.440;2023-02-28T00:32:27;2.80;99.90
21246;DHT22;10781;50.928;4.440;2023-02-28T00:34:53;2.70;99.90
21246;DHT22;10781;50.928;4.440;2023-02-28T00:37:18;2.90;99.90
21246;DHT22;10781;50.928;4.440;2023-02-28T00:39:44;3.00;99.90
21246;DHT22;10781;50.928;4.440;2023-02-28T00:42:10;3.10;99.90
21246;DHT22;10781;50.928;4.440;2023-02-28T00:44:35;3.30;99.90
21246;DHT22;10781;50.928;4.440;2023-02-28T00:47:01;3.20;99.90
21246;DHT22;10781;50.928;4.440;2023-02-28T00:49:27;3.30;99.90
21246;DHT22;10781;50.928;4.440;2023-02-28T00:51:54;3.40;99.90
21246;DHT22;10781;50.928;4.440;2023-02-28T00:54:20;3.50;99.90
21246;DHT22;10781;50.928;4.440;2023-02-28T00:56:46;3.30;99.90
21246;DHT22;10781;50.928;4.440;2023-02-28T00:59:13;2.90;99.90
21246;DHT22;10781;50.928;4.440;2023-02-28T01:01:40;2.80;99.90
21246;DHT22;10781;50.928;4.440;2023-02-28T01:04:05;2.60;99.90
21246;DHT22;10781;50.928;4.440;2023-02-28T01:06:31;2.60;99.90
21246;DHT22;10781;50.928;4.440;2023-02-28T01:08:57;2.50;99.90
21246;DHT22;10781;50.928;4.440;2023-02-28T01:11:23;2.40;99.90
21246;DHT22;10781;50.928;4.440;2023-02-28T01:13:49;2.30;99.90
21246;DHT22;10781;50.928;4.440;2023-02-28T01:16:15;2.30;99.90
21246;DHT22;10781;50.928;4.440;2023-02-28T01:18:41;2.40;99.90
21246;DHT22;10781;50.928;4.440;2023-02-28T01:21:12;2.30;99.90
21246;DHT22;10781;50.928;4.440;2023-02-28T01:23:39;2.20;99.90
21246;DHT22;10781;50.928;4.440;2023-02-28T01:26:10;2.30;99.90
21246;DHT22;10781;50.928;4.440;2023-02-28T01:28:36;2.10;99.90
21246;DHT22;10781;50.928;4.440;2023-02-28T01:31:02;2.10;99.90
21246;DHT22;10781;50.928;4.440;2023-02-28T01:33:28;2.10;99.90
21246;DHT22;10781;50.928;4.440;2023-02-28T01:36:00;2.20;99.90
21246;DHT22;10781;50.928;4.440;2023-02-28T01:38:26;2.30;99.90
21246;DHT22;10781;50.928;4.440;2023-02-28T01:40:52;2.10;99.90
21246;DHT22;10781;50.928;4.440;2023-02-28T01:43:27;1.90;99.90
21246;DHT22;10781;50.928;4.440;2023-02-28T01:45:54;1.90;99.90
21246;DHT22;10781;50.928;4.440;2023-02-28T01:48:25;1.80;99.90
21246;DHT22;10781;50.928;4.440;2023-02-28T01:50:51;2.10;99.90
21246;DHT22;10781;50.928;4.440;2023-02-28T01:53:21;2.00;99.90
21246;DHT22;10781;50.928;4.440;2023-02-28T01:55:48;2.00;99.90
21246;DHT22;10781;50.928;4.440;2023-02-28T01:58:15;1.90;99.90
21246;DHT22;10781;50.928;4.440;2023-02-28T02:00:41;1.90;99.90
21246;DHT22;10781;50.928;4.440;2023-02-28T02:03:14;1.80;99.90
21246;DHT22;10781;50.928;4.440;2023-02-28T02:05:41;1.70;99.90
21246;DHT22;10781;50.928;4.440;2023-02-28T02:08:10;1.70;99.90
21246;DHT22;10781;50.928;4.440;2023-02-28T02:24:30;1.70;99.90
21246;DHT22;10781;50.928;4.440;2023-02-28T02:32:54;1.60;99.90
21246;DHT22;10781;50.928;4.440;2023-02-28T02:35:47;1.60;99.90
21246;DHT22;10781;50.928;4.440;2023-02-28T02:41:36;1.50;99.90
21246;DHT22;10781;50.928;4.440;2023-02-28T02:46:48;1.80;99.90
21246;DHT22;10781;50.928;4.440;2023-02-28T02:49:19;1.90;99.90
21246;DHT22;10781;50.928;4.440;2023-02-28T02:51:47;1.90;99.90
21246;DHT22;10781;50.928;4.440;2023-02-28T02:56:46;1.80;99.90
21246;DHT22;10781;50.928;4.440;2023-02-28T02:59:15;2.10;99.90
21246;DHT22;10781;50.928;4.440;2023-02-28T03:01:48;1.90;99.90
21246;DHT22;10781;50.928;4.440;2023-02-28T03:04:20;2.20;99.90
21246;DHT22;10781;50.928;4.440;2023-02-28T03:06:47;1.90;99.90
21246;DHT22;10781;50.928;4.440;2023-02-28T03:09:13;1.90;99.90
21246;DHT22;10781;50.928;4.440;2023-02-28T03:11:40;1.70;99.90
21246;DHT22;10781;50.928;4.440;2023-02-28T03:19:31;1.70;99.90
21246;DHT22;10781;50.928;4.440;2023-02-28T03:28:08;1.40;99.90
21246;DHT22;10781;50.928;4.440;2023-02-28T03:30:49;1.40;99.90
21246;DHT22;10781;50.928;4.440;2023-02-28T03:33:23;1.50;99.90
21246;DHT22;10781;50.928;4.440;2023-02-28T03:36:01;1.40;99.90
21246;DHT22;10781;50.928;4.440;2023-02-28T03:41:17;1.60;99.90
21246;DHT22;10781;50.928;4.440;2023-02-28T03:43:54;1.50;99.90
21246;DHT22;10781;50.928;4.440;2023-02-28T03:46:24;1.40;99.90
21246;DHT22;10781;50.928;4.440;2023-02-28T03:51:42;1.30;99.90
21246;DHT22;10781;50.928;4.440;2023-02-28T03:54:32;1.30;99.90
21246;DHT22;10781;50.928;4.440;2023-02-28T03:57:05;1.20;99.90
21246;DHT22;10781;50.928;4.440;2023-02-28T03:59:49;1.30;99.90
21246;DHT22;10781;50.928;4.440;2023-02-28T04:02:19;1.40;99.90
21246;DHT22;10781;50.928;4.440;2023-02-28T04:04:45;1.40;99.90
21246;DHT22;10781;50.928;4.440;2023-02-28T04:07:14;1.70;99.90
21246;DHT22;10781;50.928;4.440;2023-02-28T04:09:40;1.80;99.90
21246;DHT22;10781;50.928;4.440;2023-02-28T04:12:06;1.60;99.90
21246;DHT22;10781;50.928;4.440;2023-02-28T04:14:31;1.80;99.90
21246;DHT22;10781;50.928;4.440;2023-02-28T04:16:57;1.80;99.90
21246;DHT22;10781;50.928;4.440;2023-02-28T04:19:23;2.00;99.90
21246;DHT22;10781;50.928;4.440;2023-02-28T04:21:51;2.00;99.90
21246;DHT22;10781;50.928;4.440;2023-02-28T04:24:22;2.00;99.90
21246;DHT22;10781;50.928;4.440;2023-02-28T04:26:51;1.70;99.90
21246;DHT22;10781;50.928;4.440;2023-02-28T04:29:23;1.50;99.90
21246;DHT22;10781;50.928;4.440;2023-02-28T04:31:50;1.50;99.90
21246;DHT22;10781;50.928;4.440;2023-02-28T04:34:16;1.50;99.90
21246;DHT22;10781;50.928;4.440;2023-02-28T04:36:41;1.50;99.90
21246;DHT22;10781;50.928;4.440;2023-02-28T04:39:07;1.70;99.90
21246;DHT22;10781;50.928;4.440;2023-02-28T04:41:35;1.90;99.90
21246;DHT22;10781;50.928;4.440;2023-02-28T04:44:00;1.80;99.90
21246;DHT22;10781;50.928;4.440;2023-02-28T04:46:26;1.80;99.90
21246;DHT22;10781;50.928;4.440;2023-02-28T04:48:52;1.40;99.90
21246;DHT22;10781;50.928;4.440;2023-02-28T04:51:19;1.10;99.90
21246;DHT22;10781;50.928;4.440;2023-02-28T04:53:45;1.10;99.90
21246;DHT22;10781;50.928;4.440;2023-02-28T04:56:12;1.00;99.90
21246;DHT22;10781;50.928;4.440;2023-02-28T04:58:38;0.90;99.90
21246;DHT22;10781;50.928;4.440;2023-02-28T05:01:07;1.00;99.90
21246;DHT22;10781;50.928;4.440;2023-02-28T05:03:40;1.20;99.90
21246;DHT22;10781;50.928;4.440;2023-02-28T05:06:07;1.50;99.90
21246;DHT22;10781;50.928;4.440;2023-02-28T05:08:33;1.70;99.90
21246;DHT22;10781;50.928;4.440;2023-02-28T05:10:59;1.70;99.90
21246;DHT22;10781;50.928;4.440;2023-02-28T05:13:28;1.60;99.90
21246;DHT22;10781;50.928;4.440;2023-02-28T05:15:55;1.80;99.90
21246;DHT22;10781;50.928;4.440;2023-02-28T05:18:20;1.80;99.90
21246;DHT22;10781;50.928;4.440;2023-02-28T05:20:46;1.80;99.90
21246;DHT22;10781;50.928;4.440;2023-02-28T05:23:13;1.80;99.90
21246;DHT22;10781;50.928;4.440;2023-02-28T05:25:39;2.00;99.90
21246;DHT22;10781;50.928;4.440;2023-02-28T05:28:06;2.10;99.90
21246;DHT22;10781;50.928;4.440;2023-02-28T05:30:32;2.00;99.90
21246;DHT22;10781;50.928;4.440;2023-02-28T05:32:58;2.10;99.90
21246;DHT22;10781;50.928;4.440;2023-02-28T05:35:24;2.00;99.90
21246;DHT22;10781;50.928;4.440;2023-02-28T05:37:50;2.10;99.90
21246;DHT22;10781;50.928;4.440;2023-02-28T05:40:16;2.20;99.90
21246;DHT22;10781;50.928;4.440;2023-02-28T05:42:42;2.60;99.90
21246;DHT22;10781;50.928;4.440;2023-02-28T05:45:09;2.90;99.90
21246;DHT22;10781;50.928;4.440;2023-02-28T05:47:35;2.70;99.90
21246;DHT22;10781;50.928;4.440;2023-02-28T05:50:01;2.90;99.90
21246;DHT22;10781;50.928;4.440;2023-02-28T05:52:27;2.90;99.90
21246;DHT22;10781;50.928;4.440;2023-02-28T05:54:53;3.10;99.90
21246;DHT22;10781;50.928;4.440;2023-02-28T05:57:19;3.20;99.90
21246;DHT22;10781;50.928;4.440;2023-02-28T05:59:44;2.90;99.90
21246;DHT22;10781;50.928;4.440;2023-02-28T06:02:16;2.60;99.90
21246;DHT22;10781;50.928;4.440;2023-02-28T06:04:43;2.40;99.90
21246;DHT22;10781;50.928;4.440;2023-02-28T06:07:09;2.30;99.90
21246;DHT22;10781;50.928;4.440;2023-02-28T06:09:36;2.60;99.90
21246;DHT22;10781;50.928;4.440;2023-02-28T06:12:03;2.60;99.90
21246;DHT22;10781;50.928;4.440;2023-02-28T06:14:32;2.50;99.90
21246;DHT22;10781;50.928;4.440;2023-02-28T06:16:59;2.40;99.90
21246;DHT22;10781;50.928;4.440;2023-02-28T06:19:25;2.50;99.90
21246;DHT22;10781;50.928;4.440;2023-02-28T06:21:51;2.80;99.90
21246;DHT22;10781;50.928;4.440;2023-02-28T06:24:25;2.80;99.90
21246;DHT22;10781;50.928;4.440;2023-02-28T06:26:53;2.70;99.90
21246;DHT22;10781;50.928;4.440;2023-02-28T06:29:19;2.60;99.90
21246;DHT22;10781;50.928;4.440;2023-02-28T06:31:45;2.40;99.90
21246;DHT22;10781;50.928;4.440;2023-02-28T06:34:11;2.30;99.90
21246;DHT22;10781;50.928;4.440;2023-02-28T06:36:38;2.20;99.90
21246;DHT22;10781;50.928;4.440;2023-02-28T06:39:05;2.10;99.90
21246;DHT22;10781;50.928;4.440;2023-02-28T06:41:30;2.20;99.90
21246;DHT22;10781;50.928;4.440;2023-02-28T06:43:56;2.40;99.90
21246;DHT22;10781;50.928;4.440;2023-02-28T06:46:22;2.50;99.90
21246;DHT22;10781;50.928;4.440;2023-02-28T06:48:48;2.50;99.90
21246;DHT22;10781;50.928;4.440;2023-02-28T06:51:17;2.50;99.90
21246;DHT22;10781;50.928;4.440;2023-02-28T06:53:43;2.50;99.90
21246;DHT22;10781;50.928;4.440;2023-02-28T06:56:11;2.60;99.90
21246;DHT22;10781;50.928;4.440;2023-02-28T06:58:37;2.60;99.90
21246;DHT22;10781;50.928;4.440;2023-02-28T07:01:04;2.40;99.90
21246;DHT22;10781;50.928;4.440;2023-02-28T07:03:30;2.40;99.90
21246;DHT22;10781;50.928;4.440;2023-02-28T07:05:56;2.30;99.90
21246;DHT22;10781;50.928;4.440;2023-02-28T07:08:24;2.30;99.90
21246;DHT22;10781;50.928;4.440;2023-02-28T07:10:54;2.40;99.90
21246;DHT22;10781;50.928;4.440;2023-02-28T07:13:20;2.50;99.90
21246;DHT22;10781;50.928;4.440;2023-02-28T07:15:58;2.50;99.90
21246;DHT22;10781;50.928;4.440;2023-02-28T07:18:24;2.60;99.90
21246;DHT22;10781;50.928;4.440;2023-02-28T07:20:50;2.60;99.90
21246;DHT22;10781;50.928;4.440;2023-02-28T07:23:16;2.70;99.90
21246;DHT22;10781;50.928;4.440;2023-02-28T07:25:42;2.80;99.90
21246;DHT22;10781;50.928;4.440;2023-02-28T07:28:08;3.00;99.90
21246;DHT22;10781;50.928;4.440;2023-02-28T07:30:34;2.90;99.90
21246;DHT22;10781;50.928;4.440;2023-02-28T07:33:00;3.00;99.90
21246;DHT22;10781;50.928;4.440;2023-02-28T07:35:26;3.20;99.90
21246;DHT22;10781;50.928;4.440;2023-02-28T07:37:51;3.30;99.90
21246;DHT22;10781;50.928;4.440;2023-02-28T07:40:17;3.20;99.90
21246;DHT22;10781;50.928;4.440;2023-02-28T07:42:43;3.20;99.90
21246;DHT22;10781;50.928;4.440;2023-02-28T07:45:10;3.40;99.90
21246;DHT22;10781;50.928;4.440;2023-02-28T07:47:37;3.40;99.90
21246;DHT22;10781;50.928;4.440;2023-02-28T07:50:06;3.30;99.90
21246;DHT22;10781;50.928;4.440;2023-02-28T07:52:31;3.20;99.90
21246;DHT22;10781;50.928;4.440;2023-02-28T07:54:57;3.00;99.90
21246;DHT22;10781;50.928;4.440;2023-02-28T07:57:23;2.90;99.90
21246;DHT22;10781;50.928;4.440;2023-02-28T07:59:49;2.90;99.90
21246;DHT22;10781;50.928;4.440;2023-02-28T08:02:18;2.80;99.90
21246;DHT22;10781;50.928;4.440;2023-02-28T08:04:45;2.80;99.90
21246;DHT22;10781;50.928;4.440;2023-02-28T08:07:12;2.90;99.90
21246;DHT22;10781;50.928;4.440;2023-02-28T08:09:39;3.00;99.90
21246;DHT22;10781;50.928;4.440;2023-02-28T08:12:06;3.30;99.90
21246;DHT22;10781;50.928;4.440;2023-02-28T08:14:32;3.50;99.90
21246;DHT22;10781;50.928;4.440;2023-02-28T08:16:58;3.70;99.90
21246;DHT22;10781;50.928;4.440;2023-02-28T08:19:23;3.80;99.90
21246;DHT22;10781;50.928;4.440;2023-02-28T08:21:49;4.00;99.90
21246;DHT22;10781;50.928;4.440;2023-02-28T08:24:14;4.10;99.90
21246;DHT22;10781;50.928;4.440;2023-02-28T08:26:40;4.30;99.90
21246;DHT22;10781;50.928;4.440;2023-02-28T08:29:06;4.50;99.90
21246;DHT22;10781;50.928;4.440;2023-02-28T08:31:31;4.80;99.90
21246;DHT22;10781;50.928;4.440;2023-02-28T08:33:57;5.50;99.90
21246;DHT22;10781;50.928;4.440;2023-02-28T08:36:25;5.90;99.90
21246;DHT22;10781;50.928;4.440;2023-02-28T08:38:50;6.00;99.90
21246;DHT22;10781;50.928;4.440;2023-02-28T08:41:16;6.80;99.90
21246;DHT22;10781;50.928;4.440;2023-02-28T08:43:42;7.80;99.90
21246;DHT22;10781;50.928;4.440;2023-02-28T08:46:11;7.80;99.90
21246;DHT22;10781;50.928;4.440;2023-02-28T08:48:37;7.10;99.90
21246;DHT22;10781;50.928;4.440;2023-02-28T08:51:10;6.50;99.90
21246;DHT22;10781;50.928;4.440;2023-02-28T08:53:36;6.20;99.90
21246;DHT22;10781;50.928;4.440;2023-02-28T08:56:13;5.20;99.90
21246;DHT22;10781;50.928;4.440;2023-02-28T08:58:40;5.40;99.90
21246;DHT22;10781;50.928;4.440;2023-02-28T09:01:20;5.90;99.90
21246;DHT22;10781;50.928;4.440;2023-02-28T09:03:48;6.30;99.90
21246;DHT22;10781;50.928;4.440;2023-02-28T09:06:15;6.50;99.90
21246;DHT22;10781;50.928;4.440;2023-02-28T09:08:41;6.50;99.90
21246;DHT22;10781;50.928;4.440;2023-02-28T09:11:07;6.70;99.90
21246;DHT22;10781;50.928;4.440;2023-02-28T09:13:33;8.20;99.90
21246;DHT22;10781;50.928;4.440;2023-02-28T09:16:01;8.60;99.90
21246;DHT22;10781;50.928;4.440;2023-02-28T09:18:27;7.90;99.90
21246;DHT22;10781;50.928;4.440;2023-02-28T09:20:53;7.00;99.90
21246;DHT22;10781;50.928;4.440;2023-02-28T09:23:19;7.30;99.90
21246;DHT22;10781;50.928;4.440;2023-02-28T09:25:47;8.90;99.90
21246;DHT22;10781;50.928;4.440;2023-02-28T09:28:13;10.10;99.90
21246;DHT22;10781;50.928;4.440;2023-02-28T09:30:41;11.90;97.40
21246;DHT22;10781;50.928;4.440;2023-02-28T09:33:07;12.70;93.30
21246;DHT22;10781;50.928;4.440;2023-02-28T09:35:33;12.60;90.00
21246;DHT22;10781;50.928;4.440;2023-02-28T09:37:59;13.10;89.30
21246;DHT22;10781;50.928;4.440;2023-02-28T09:40:25;13.50;81.30
21246;DHT22;10781;50.928;4.440;2023-02-28T09:42:53;14.00;77.50
21246;DHT22;10781;50.928;4.440;2023-02-28T09:45:41;13.70;77.00
21246;DHT22;10781;50.928;4.440;2023-02-28T09:48:14;14.70;75.20
21246;DHT22;10781;50.928;4.440;2023-02-28T09:51:12;15.20;69.40
21246;DHT22;10781;50.928;4.440;2023-02-28T09:53:34;12.10;73.00
21246;DHT22;10781;50.928;4.440;2023-02-28T09:56:24;9.20;81.50
21246;DHT22;10781;50.928;4.440;2023-02-28T10:07:17;11.10;80.80
21246;DHT22;10781;50.928;4.440;2023-02-28T10:09:48;12.60;78.20
21246;DHT22;10781;50.928;4.440;2023-02-28T10:12:16;12.70;72.80
21246;DHT22;10781;50.928;4.440;2023-02-28T10:14:46;13.90;73.10
21246;DHT22;10781;50.928;4.440;2023-02-28T10:17:17;14.60;69.60
21246;DHT22;10781;50.928;4.440;2023-02-28T10:22:24;17.10;64.90
21246;DHT22;10781;50.928;4.440;2023-02-28T10:24:54;17.70;60.40
21246;DHT22;10781;50.928;4.440;2023-02-28T10:27:28;17.20;58.80
21246;DHT22;10781;50.928;4.440;2023-02-28T10:30:00;16.30;58.40
21246;DHT22;10781;50.928;4.440;2023-02-28T10:32:30;15.70;58.90
21246;DHT22;10781;50.928;4.440;2023-02-28T10:37:33;18.80;54.70
21246;DHT22;10781;50.928;4.440;2023-02-28T10:40:04;18.30;50.70
21246;DHT22;10781;50.928;4.440;2023-02-28T10:42:32;18.00;50.00
21246;DHT22;10781;50.928;4.440;2023-02-28T10:45:15;16.90;47.10
21246;DHT22;10781;50.928;4.440;2023-02-28T10:47:56;15.90;48.90
21246;DHT22;10781;50.928;4.440;2023-02-28T10:50:46;16.10;49.90
21246;DHT22;10781;50.928;4.440;2023-02-28T10:56:06;14.10;52.20
21246;DHT22;10781;50.928;4.440;2023-02-28T11:03:58;17.70;49.50
21246;DHT22;10781;50.928;4.440;2023-02-28T11:06:30;16.90;48.20
21246;DHT22;10781;50.928;4.440;2023-02-28T11:08:59;15.70;48.70
21246;DHT22;10781;50.928;4.440;2023-02-28T11:11:27;17.40;49.20
21246;DHT22;10781;50.928;4.440;2023-02-28T11:13:56;16.80;48.00
21246;DHT22;10781;50.928;4.440;2023-02-28T11:16:32;16.50;48.80
21246;DHT22;10781;50.928;4.440;2023-02-28T11:18:59;16.80;48.10
21246;DHT22;10781;50.928;4.440;2023-02-28T11:23:54;16.60;48.30
21246;DHT22;10781;50.928;4.440;2023-02-28T11:26:41;17.70;48.60
21246;DHT22;10781;50.928;4.440;2023-02-28T11:29:28;19.90;44.40
21246;DHT22;10781;50.928;4.440;2023-02-28T11:32:13;19.20;44.20
21246;DHT22;10781;50.928;4.440;2023-02-28T11:34:42;19.90;42.90
21246;DHT22;10781;50.928;4.440;2023-02-28T11:37:27;18.40;43.20
21246;DHT22;10781;50.928;4.440;2023-02-28T11:39:54;15.60;44.60
21246;DHT22;10781;50.928;4.440;2023-02-28T11:42:41;15.90;45.70
21246;DHT22;10781;50.928;4.440;2023-02-28T11:45:24;15.40;46.60
21246;DHT22;10781;50.928;4.440;2023-02-28T11:53:53;15.70;46.70
21246;DHT22;10781;50.928;4.440;2023-02-28T11:56:39;15.50;47.00
21246;DHT22;10781;50.928;4.440;2023-02-28T12:05:19;16.40;46.30
21246;DHT22;10781;50.928;4.440;2023-02-28T12:11:01;16.00;46.40
21246;DHT22;10781;50.928;4.440;2023-02-28T12:16:34;16.60;47.60
21246;DHT22;10781;50.928;4.440;2023-02-28T12:19:20;18.90;44.80
21246;DHT22;10781;50.928;4.440;2023-02-28T12:22:05;16.30;44.80
21246;DHT22;10781;50.928;4.440;2023-02-28T12:24:50;15.90;46.00
21246;DHT22;10781;50.928;4.440;2023-02-28T12:27:22;17.10;44.30
21246;DHT22;10781;50.928;4.440;2023-02-28T12:29:58;17.30;44.40
21246;DHT22;10781;50.928;4.440;2023-02-28T12:32:36;17.20;44.80
21246;DHT22;10781;50.928;4.440;2023-02-28T12:38:12;18.10;42.40
21246;DHT22;10781;50.928;4.440;2023-02-28T12:41:59;17.30;43.10
21246;DHT22;10781;50.928;4.440;2023-02-28T12:44:00;18.70;43.20
21246;DHT22;10781;50.928;4.440;2023-02-28T12:46:32;21.00;40.80
21246;DHT22;10781;50.928;4.440;2023-02-28T12:49:05;19.00;39.50
21246;DHT22;10781;50.928;4.440;2023-02-28T12:51:32;18.00;40.40
21246;DHT22;10781;50.928;4.440;2023-02-28T12:57:19;16.10;42.80
21246;DHT22;10781;50.928;4.440;2023-02-28T12:59:54;15.90;44.10
21246;DHT22;10781;50.928;4.440;2023-02-28T13:08:00;16.10;43.80
21246;DHT22;10781;50.928;4.440;2023-02-28T13:10:47;18.30;43.70
21246;DHT22;10781;50.928;4.440;2023-02-28T13:13:20;18.40;40.30
21246;DHT22;10781;50.928;4.440;2023-02-28T13:20:56;17.00;41.10
21246;DHT22;10781;50.928;4.440;2023-02-28T13:34:35;16.50;42.50
21246;DHT22;10781;50.928;4.440;2023-02-28T13:39:49;16.10;43.50
21246;DHT22;10781;50.928;4.440;2023-02-28T13:47:44;16.40;41.70
21246;DHT22;10781;50.928;4.440;2023-02-28T13:58:27;14.90;44.90
21246;DHT22;10781;50.928;4.440;2023-02-28T14:01:55;14.30;43.90
21246;DHT22;10781;50.928;4.440;2023-02-28T14:06:33;14.10;45.30
21246;DHT22;10781;50.928;4.440;2023-02-28T14:11:36;15.40;45.70
21246;DHT22;10781;50.928;4.440;2023-02-28T14:14:05;16.10;42.70
21246;DHT22;10781;50.928;4.440;2023-02-28T14:16:44;15.50;43.70
21246;DHT22;10781;50.928;4.440;2023-02-28T14:27:32;15.70;43.50
21246;DHT22;10781;50.928;4.440;2023-02-28T14:38:35;16.40;43.20
21246;DHT22;10781;50.928;4.440;2023-02-28T14:41:06;16.20;43.50
21246;DHT22;10781;50.928;4.440;2023-02-28T14:43:51;15.50;44.20
21246;DHT22;10781;50.928;4.440;2023-02-28T14:46:18;14.80;43.80
21246;DHT22;10781;50.928;4.440;2023-02-28T14:48:49;13.60;46.80
21246;DHT22;10781;50.928;4.440;2023-02-28T14:51:22;14.30;45.60
21246;DHT22;10781;50.928;4.440;2023-02-28T14:53:51;13.10;47.10
21246;DHT22;10781;50.928;4.440;2023-02-28T14:56:23;13.80;47.60
21246;DHT22;10781;50.928;4.440;2023-02-28T14:58:54;13.70;46.90
21246;DHT22;10781;50.928;4.440;2023-02-28T15:01:22;13.60;47.40
21246;DHT22;10781;50.928;4.440;2023-02-28T15:03:48;13.30;47.70
21246;DHT22;10781;50.928;4.440;2023-02-28T15:06:22;14.20;48.00
21246;DHT22;10781;50.928;4.440;2023-02-28T15:09:10;14.90;46.20
21246;DHT22;10781;50.928;4.440;2023-02-28T15:11:37;13.50;46.40
21246;DHT22;10781;50.928;4.440;2023-02-28T15:14:04;13.90;47.90
21246;DHT22;10781;50.928;4.440;2023-02-28T15:16:37;13.10;48.40
21246;DHT22;10781;50.928;4.440;2023-02-28T15:19:13;13.30;49.10
21246;DHT22;10781;50.928;4.440;2023-02-28T15:21:44;15.20;48.20
21246;DHT22;10781;50.928;4.440;2023-02-28T15:26:53;13.50;48.60
21246;DHT22;10781;50.928;4.440;2023-02-28T15:29:22;13.30;48.40
21246;DHT22;10781;50.928;4.440;2023-02-28T15:31:53;12.80;50.30
21246;DHT22;10781;50.928;4.440;2023-02-28T15:34:25;12.50;50.50
21246;DHT22;10781;50.928;4.440;2023-02-28T15:36:52;12.00;51.20
21246;DHT22;10781;50.928;4.440;2023-02-28T15:39:26;11.20;51.50
21246;DHT22;10781;50.928;4.440;2023-02-28T15:42:20;11.10;53.10
21246;DHT22;10781;50.928;4.440;2023-02-28T15:44:46;10.80;54.00
21246;DHT22;10781;50.928;4.440;2023-02-28T15:49:56;11.20;53.40
21246;DHT22;10781;50.928;4.440;2023-02-28T15:52:39;11.50;52.50
21246;DHT22;10781;50.928;4.440;2023-02-28T15:55:23;12.40;52.60
21246;DHT22;10781;50.928;4.440;2023-02-28T15:57:52;12.30;50.60
21246;DHT22;10781;50.928;4.440;2023-02-28T16:00:21;12.50;50.50
21246;DHT22;10781;50.928;4.440;2023-02-28T16:02:47;11.80;50.60
21246;DHT22;10781;50.928;4.440;2023-02-28T16:07:40;11.20;52.80
21246;DHT22;10781;50.928;4.440;2023-02-28T16:10:07;11.60;53.00
21246;DHT22;10781;50.928;4.440;2023-02-28T16:12:35;12.30;52.40
21246;DHT22;10781;50.928;4.440;2023-02-28T16:15:07;11.70;52.20
21246;DHT22;10781;50.928;4.440;2023-02-28T16:17:35;11.00;53.60
21246;DHT22;10781;50.928;4.440;2023-02-28T16:20:16;10.30;54.60
21246;DHT22;10781;50.928;4.440;2023-02-28T16:22:42;9.80;55.60
21246;DHT22;10781;50.928;4.440;2023-02-28T16:25:16;9.50;56.70
21246;DHT22;10781;50.928;4.440;2023-02-28T16:27:43;8.90;58.10
21246;DHT22;10781;50.928;4.440;2023-02-28T16:30:20;8.30;58.30
21246;DHT22;10781;50.928;4.440;2023-02-28T16:32:48;8.00;59.80
21246;DHT22;10781;50.928;4.440;2023-02-28T16:35:14;7.90;60.40
21246;DHT22;10781;50.928;4.440;2023-02-28T16:37:41;7.80;61.00
21246;DHT22;10781;50.928;4.440;2023-02-28T16:40:20;7.90;61.50
21246;DHT22;10781;50.928;4.440;2023-02-28T16:42:48;7.70;62.40
21246;DHT22;10781;50.928;4.440;2023-02-28T16:45:23;7.50;63.50
21246;DHT22;10781;50.928;4.440;2023-02-28T16:47:50;7.60;64.20
21246;DHT22;10781;50.928;4.440;2023-02-28T16:50:18;7.70;63.80
21246;DHT22;10781;50.928;4.440;2023-02-28T16:52:44;7.90;63.70
21246;DHT22;10781;50.928;4.440;2023-02-28T16:55:11;8.00;63.00
21246;DHT22;10781;50.928;4.440;2023-02-28T16:57:38;8.00;63.80
21246;DHT22;10781;50.928;4.440;2023-02-28T17:00:06;7.90;64.10
21246;DHT22;10781;50.928;4.440;2023-02-28T17:02:34;7.80;65.00
21246;DHT22;10781;50.928;4.440;2023-02-28T17:04:59;7.70;65.20
21246;DHT22;10781;50.928;4.440;2023-02-28T17:07:25;7.50;65.30
21246;DHT22;10781;50.928;4.440;2023-02-28T17:09:51;7.30;65.80
21246;DHT22;10781;50.928;4.440;2023-02-28T17:12:17;7.40;66.20
21246;DHT22;10781;50.928;4.440;2023-02-28T17:14:42;7.20;66.70
21246;DHT22;10781;50.928;4.440;2023-02-28T17:17:18;7.20;67.40
21246;DHT22;10781;50.928;4.440;2023-02-28T17:19:45;7.30;67.80
21246;DHT22;10781;50.928;4.440;2023-02-28T17:22:11;7.30;68.10
21246;DHT22;10781;50.928;4.440;2023-02-28T17:24:36;7.50;68.40
21246;DHT22;10781;50.928;4.440;2023-02-28T17:27:02;7.50;68.20
21246;DHT22;10781;50.928;4.440;2023-02-28T17:29:28;7.90;67.70
21246;DHT22;10781;50.928;4.440;2023-02-28T17:31:54;7.70;67.10
21246;DHT22;10781;50.928;4.440;2023-02-28T17:34:21;7.70;67.90
21246;DHT22;10781;50.928;4.440;2023-02-28T17:36:49;7.50;69.10
21246;DHT22;10781;50.928;4.440;2023-02-28T17:39:16;7.60;69.30
21246;DHT22;10781;50.928;4.440;2023-02-28T17:41:53;7.40;69.50
21246;DHT22;10781;50.928;4.440;2023-02-28T17:44:20;7.30;70.30
21246;DHT22;10781;50.928;4.440;2023-02-28T17:46:46;7.60;70.60
21246;DHT22;10781;50.928;4.440;2023-02-28T17:49:13;7.90;69.90
21246;DHT22;10781;50.928;4.440;2023-02-28T17:51:38;7.70;70.00
21246;DHT22;10781;50.928;4.440;2023-02-28T17:54:04;7.80;70.60
21246;DHT22;10781;50.928;4.440;2023-02-28T17:56:30;8.00;70.60
21246;DHT22;10781;50.928;4.440;2023-02-28T17:58:57;7.80;70.50
21246;DHT22;10781;50.928;4.440;2023-02-28T18:01:23;7.70;71.00
21246;DHT22;10781;50.928;4.440;2023-02-28T18:03:51;7.60;71.30
21246;DHT22;10781;50.928;4.440;2023-02-28T18:06:27;7.40;72.20
21246;DHT22;10781;50.928;4.440;2023-02-28T18:08:54;7.40;72.90
21246;DHT22;10781;50.928;4.440;2023-02-28T18:11:21;7.20;73.00
21246;DHT22;10781;50.928;4.440;2023-02-28T18:13:49;7.00;74.30
21246;DHT22;10781;50.928;4.440;2023-02-28T18:16:16;6.90;75.60
21246;DHT22;10781;50.928;4.440;2023-02-28T18:18:42;7.20;75.90
21246;DHT22;10781;50.928;4.440;2023-02-28T18:21:09;7.40;74.30
21246;DHT22;10781;50.928;4.440;2023-02-28T18:23:36;7.30;74.50
21246;DHT22;10781;50.928;4.440;2023-02-28T18:26:06;6.80;75.60
21246;DHT22;10781;50.928;4.440;2023-02-28T18:28:32;6.30;77.80
21246;DHT22;10781;50.928;4.440;2023-02-28T18:31:08;6.10;79.00
21246;DHT22;10781;50.928;4.440;2023-02-28T18:33:34;5.90;80.10
21246;DHT22;10781;50.928;4.440;2023-02-28T18:36:00;6.20;82.30
21246;DHT22;10781;50.928;4.440;2023-02-28T18:38:26;6.30;82.70